createdAt,value
2019-03-20T00:00:53.617Z,15.93
2019-03-20T00:03:20.487Z,15.93
2019-03-20T00:05:47.824Z,15.91
2019-03-20T00:08:14.792Z,15.88
2019-03-20T00:10:41.666Z,15.87
2019-03-20T00:13:08.552Z,15.87
2019-03-20T00:15:35.818Z,15.81
2019-03-20T00:18:02.816Z,15.79
2019-03-20T00:20:30.116Z,15.81
2019-03-20T00:22:57.374Z,15.81
2019-03-20T00:25:24.613Z,15.80
2019-03-20T00:27:51.790Z,15.76
2019-03-20T00:30:19.014Z,15.79
2019-03-20T00:32:46.050Z,15.83
2019-03-20T00:35:12.997Z,15.86
2019-03-20T00:37:39.934Z,15.91
2019-03-20T00:40:07.089Z,15.92
2019-03-20T00:42:35.524Z,15.89
2019-03-20T00:45:03.063Z,15.87
2019-03-20T00:47:30.084Z,15.89
2019-03-20T00:49:58.066Z,15.90
2019-03-20T00:52:25.198Z,15.88
2019-03-20T00:54:52.084Z,15.89
2019-03-20T00:57:19.312Z,15.86
2019-03-20T00:59:46.205Z,15.85
2019-03-20T01:02:13.512Z,15.82
2019-03-20T01:04:40.749Z,15.79
2019-03-20T01:07:10.019Z,15.79
2019-03-20T01:09:36.207Z,15.79
2019-03-20T01:12:03.223Z,15.80
2019-03-20T01:14:30.174Z,15.81
2019-03-20T01:16:57.045Z,15.82
2019-03-20T01:19:23.933Z,15.86
2019-03-20T01:21:50.849Z,15.86
2019-03-20T01:24:18.177Z,15.83
2019-03-20T01:26:45.429Z,15.81
2019-03-20T01:29:12.658Z,15.80
2019-03-20T01:31:39.530Z,15.81
2019-03-20T01:34:06.777Z,15.82
2019-03-20T01:36:33.733Z,15.84
2019-03-20T01:39:02.103Z,15.86
2019-03-20T01:41:37.981Z,15.82
2019-03-20T01:43:59.005Z,15.78
2019-03-20T01:46:26.214Z,15.70
2019-03-20T01:48:53.092Z,15.64
2019-03-20T01:51:20.416Z,15.61
2019-03-20T01:53:47.358Z,15.58
2019-03-20T01:56:14.302Z,15.56
2019-03-20T01:58:41.536Z,15.55
2019-03-20T02:01:08.689Z,15.57
2019-03-20T02:03:35.960Z,15.54
2019-03-20T02:06:03.210Z,15.52
2019-03-20T02:08:31.214Z,15.46
2019-03-20T02:10:58.423Z,15.41
2019-03-20T02:13:25.588Z,15.41
2019-03-20T02:15:52.474Z,15.35
2019-03-20T02:18:19.423Z,15.31
2019-03-20T02:20:46.622Z,15.31
2019-03-20T02:23:13.502Z,15.28
2019-03-20T02:25:40.841Z,15.24
2019-03-20T02:28:08.073Z,15.19
2019-03-20T02:30:34.977Z,15.17
2019-03-20T02:33:02.292Z,15.15
2019-03-20T02:35:29.522Z,15.16
2019-03-20T02:37:56.471Z,15.13
2019-03-20T02:40:23.378Z,15.08
2019-03-20T02:42:50.677Z,15.07
2019-03-20T02:45:17.650Z,15.04
2019-03-20T02:47:44.594Z,15.02
2019-03-20T02:50:11.548Z,15.01
2019-03-20T02:52:38.761Z,14.95
2019-03-20T02:55:05.809Z,14.92
2019-03-20T02:57:32.765Z,14.86
2019-03-20T02:59:59.766Z,14.81
2019-03-20T03:02:26.998Z,14.75
2019-03-20T03:04:53.891Z,14.71
2019-03-20T03:07:21.208Z,14.67
2019-03-20T03:09:49.536Z,14.62
2019-03-20T03:12:16.473Z,14.61
2019-03-20T03:14:43.353Z,14.56
2019-03-20T03:17:10.561Z,14.52
2019-03-20T03:19:37.608Z,14.47
2019-03-20T03:22:04.973Z,14.44
2019-03-20T03:24:33.263Z,14.41
2019-03-20T03:27:00.494Z,14.36
2019-03-20T03:29:27.376Z,14.28
2019-03-20T03:31:54.340Z,14.27
2019-03-20T03:34:21.387Z,14.24
2019-03-20T03:36:48.704Z,14.22
2019-03-20T03:39:15.604Z,14.15
2019-03-20T03:41:42.546Z,14.09
2019-03-20T03:44:09.515Z,14.05
2019-03-20T03:46:36.479Z,14.04
2019-03-20T03:49:03.833Z,14.01
2019-03-20T03:51:30.792Z,14.00
2019-03-20T03:53:57.737Z,13.99
2019-03-20T03:56:24.984Z,13.97
2019-03-20T03:58:51.892Z,13.94
2019-03-20T04:01:18.821Z,13.94
2019-03-20T04:03:45.854Z,13.95
2019-03-20T04:06:12.825Z,13.93
2019-03-20T04:08:41.029Z,13.92
2019-03-20T04:11:07.951Z,13.86
2019-03-20T04:13:35.236Z,13.86
2019-03-20T04:16:02.249Z,13.80
2019-03-20T04:18:29.209Z,13.77
2019-03-20T04:20:56.248Z,13.75
2019-03-20T04:23:23.104Z,13.72
2019-03-20T04:25:50.382Z,13.72
2019-03-20T04:28:17.287Z,13.67
2019-03-20T04:30:44.678Z,13.67
2019-03-20T04:33:11.561Z,13.66
2019-03-20T04:35:38.531Z,13.64
2019-03-20T04:38:05.721Z,13.66
2019-03-20T04:40:32.892Z,13.65
2019-03-20T04:42:59.862Z,13.65
2019-03-20T04:45:28.779Z,13.67
2019-03-20T04:47:56.056Z,13.67
2019-03-20T04:50:22.952Z,13.68
2019-03-20T04:52:49.903Z,13.71
2019-03-20T04:55:16.785Z,13.74
2019-03-20T04:57:45.799Z,13.75
2019-03-20T05:00:12.317Z,13.70
2019-03-20T05:02:39.192Z,13.67
2019-03-20T05:05:06.421Z,13.65
2019-03-20T05:07:33.676Z,13.60
2019-03-20T05:10:00.923Z,13.57
2019-03-20T05:12:32.073Z,13.56
2019-03-20T05:14:59.009Z,13.55
2019-03-20T05:17:26.258Z,13.49
2019-03-20T05:19:53.144Z,13.46
2019-03-20T05:22:20.227Z,13.45
2019-03-20T05:24:47.158Z,13.45
2019-03-20T05:27:14.344Z,13.41
2019-03-20T05:29:41.238Z,13.40
2019-03-20T05:32:08.220Z,13.42
2019-03-20T05:34:35.202Z,13.47
2019-03-20T05:37:10.379Z,13.51
2019-03-20T05:39:31.074Z,13.51
2019-03-20T05:41:58.270Z,13.48
2019-03-20T05:44:26.575Z,13.46
2019-03-20T05:46:54.942Z,13.49
2019-03-20T05:49:22.097Z,13.51
2019-03-20T05:51:50.463Z,13.57
2019-03-20T05:54:17.710Z,13.61
2019-03-20T05:56:44.586Z,13.63
2019-03-20T05:59:11.548Z,13.67
2019-03-20T06:01:38.888Z,13.78
2019-03-20T06:04:05.830Z,13.88
2019-03-20T06:06:33.977Z,13.95
2019-03-20T06:09:01.130Z,14.02
2019-03-20T06:11:28.715Z,14.08
2019-03-20T06:13:55.958Z,14.16
2019-03-20T06:16:22.941Z,14.25
2019-03-20T06:18:50.151Z,14.32
2019-03-20T06:21:18.182Z,14.40
2019-03-20T06:23:45.494Z,14.45
2019-03-20T06:26:12.504Z,14.53
2019-03-20T06:28:39.524Z,14.66
2019-03-20T06:31:06.813Z,14.74
2019-03-20T06:33:34.068Z,14.86
2019-03-20T06:36:02.067Z,14.97
2019-03-20T06:38:29.726Z,15.12
2019-03-20T06:40:59.814Z,15.25
2019-03-20T06:43:29.314Z,15.35
2019-03-20T06:45:58.368Z,15.50
2019-03-20T06:48:25.357Z,15.62
2019-03-20T06:50:52.238Z,15.73
2019-03-20T06:53:19.889Z,15.91
2019-03-20T06:55:46.986Z,16.02
2019-03-20T06:58:14.207Z,16.15
2019-03-20T07:00:42.963Z,16.26
2019-03-20T07:03:11.471Z,16.38
2019-03-20T07:05:39.861Z,16.52
2019-03-20T07:08:07.282Z,16.61
2019-03-20T07:10:34.646Z,16.70
2019-03-20T07:13:01.994Z,16.81
2019-03-20T07:15:28.881Z,16.85
2019-03-20T07:17:55.777Z,16.87
2019-03-20T07:20:22.755Z,16.90
2019-03-20T07:22:49.684Z,16.96
2019-03-20T07:25:16.579Z,17.04
2019-03-20T07:27:44.910Z,17.11
2019-03-20T07:30:12.182Z,17.16
2019-03-20T07:32:39.341Z,17.29
2019-03-20T07:37:56.759Z,17.48
2019-03-20T07:40:23.717Z,17.45
2019-03-20T07:42:51.145Z,17.57
2019-03-20T07:45:19.642Z,17.71
2019-03-20T07:47:47.190Z,17.79
2019-03-20T07:50:14.486Z,17.91
2019-03-20T07:52:41.412Z,17.99
2019-03-20T07:55:08.649Z,18.08
2019-03-20T07:57:35.605Z,18.16
2019-03-20T08:00:02.478Z,18.23
2019-03-20T08:02:29.811Z,18.30
2019-03-20T08:04:57.153Z,18.39
2019-03-20T08:07:24.119Z,18.47
2019-03-20T08:09:51.050Z,18.54
2019-03-20T08:12:18.281Z,18.56
2019-03-20T08:14:45.162Z,18.61
2019-03-20T08:17:12.401Z,18.62
2019-03-20T08:19:39.654Z,18.62
2019-03-20T08:22:06.578Z,18.64
2019-03-20T08:24:33.463Z,18.70
2019-03-20T08:27:00.370Z,18.73
2019-03-20T08:29:27.320Z,18.79
2019-03-20T08:31:54.673Z,18.83
2019-03-20T08:34:21.929Z,18.84
2019-03-20T08:36:49.057Z,18.83
2019-03-20T08:39:15.954Z,18.84
2019-03-20T08:41:42.963Z,18.83
2019-03-20T08:44:10.844Z,18.86
2019-03-20T08:46:38.672Z,18.91
2019-03-20T08:49:06.399Z,18.93
2019-03-20T08:51:34.969Z,18.93
2019-03-20T08:54:02.797Z,18.92
2019-03-20T08:56:29.795Z,18.92
2019-03-20T08:58:59.816Z,18.92
2019-03-20T09:01:28.874Z,18.98
2019-03-20T09:03:56.652Z,18.98
2019-03-20T09:06:23.546Z,18.97
2019-03-20T09:08:50.937Z,19.03
2019-03-20T09:11:18.070Z,19.06
2019-03-20T09:13:45.230Z,19.13
2019-03-20T09:16:12.133Z,19.15
2019-03-20T09:18:39.021Z,19.17
2019-03-20T09:21:06.273Z,19.17
2019-03-20T09:23:35.167Z,19.17
2019-03-20T09:26:02.150Z,19.11
2019-03-20T09:28:29.102Z,18.99
2019-03-20T09:30:58.037Z,18.92
2019-03-20T09:33:25.353Z,18.91
2019-03-20T09:35:52.250Z,18.86
2019-03-20T09:38:19.181Z,18.81
2019-03-20T09:40:46.454Z,18.81
2019-03-20T09:43:14.642Z,18.75
2019-03-20T09:45:41.708Z,18.82
2019-03-20T09:48:09.387Z,18.83
2019-03-20T09:50:36.802Z,18.86
2019-03-20T09:53:03.948Z,18.96
2019-03-20T09:55:30.952Z,19.00
2019-03-20T09:57:58.243Z,19.09
2019-03-20T10:00:29.778Z,19.18
2019-03-20T10:02:56.885Z,19.24
2019-03-20T10:05:23.804Z,19.08
2019-03-20T10:07:51.513Z,19.09
2019-03-20T10:10:18.904Z,19.11
2019-03-20T10:12:46.257Z,19.15
2019-03-20T10:15:13.519Z,19.16
2019-03-20T10:17:46.157Z,19.12
2019-03-20T10:20:13.120Z,19.12
2019-03-20T10:22:40.449Z,19.09
2019-03-20T10:25:09.300Z,19.10
2019-03-20T10:27:37.241Z,19.09
2019-03-20T10:30:04.857Z,19.05
2019-03-20T10:32:32.065Z,19.01
2019-03-20T10:35:01.606Z,18.98
2019-03-20T10:37:29.457Z,18.97
2019-03-20T10:39:56.409Z,18.99
2019-03-20T10:42:23.726Z,18.95
2019-03-20T10:44:50.961Z,18.93
2019-03-20T10:47:18.920Z,18.91
2019-03-20T10:49:46.248Z,18.91
2019-03-20T10:52:14.285Z,18.92
2019-03-20T10:54:42.523Z,18.95
2019-03-20T10:57:09.496Z,18.95
2019-03-20T10:59:36.783Z,18.98
2019-03-20T11:02:03.756Z,18.98
2019-03-20T11:04:30.876Z,18.96
2019-03-20T11:06:57.789Z,18.94
2019-03-20T11:09:24.730Z,18.94
2019-03-20T11:11:52.281Z,18.95
2019-03-20T11:14:19.606Z,18.93
2019-03-20T11:16:47.052Z,18.88
2019-03-20T11:19:13.944Z,18.82
2019-03-20T11:21:43.045Z,18.76
2019-03-20T11:24:09.940Z,18.77
2019-03-20T11:26:37.173Z,18.79
2019-03-20T11:29:04.248Z,18.77
2019-03-20T11:31:31.227Z,18.80
2019-03-20T11:33:58.390Z,18.82
2019-03-20T11:36:25.558Z,18.85
2019-03-20T11:38:55.690Z,18.88
2019-03-20T11:41:25.031Z,18.81
2019-03-20T11:43:52.479Z,18.74
2019-03-20T11:46:19.696Z,18.74
2019-03-20T11:48:46.593Z,18.78
2019-03-20T11:51:14.105Z,18.86
2019-03-20T11:53:40.989Z,18.89
2019-03-20T11:56:08.045Z,18.93
2019-03-20T11:58:34.995Z,18.92
2019-03-20T12:01:01.999Z,18.92
2019-03-20T12:03:30.233Z,18.97
2019-03-20T12:05:57.195Z,18.98
2019-03-20T12:08:24.381Z,19.02
2019-03-20T12:10:51.620Z,19.05
2019-03-20T12:13:18.557Z,19.03
2019-03-20T12:15:45.435Z,18.99
2019-03-20T12:18:12.490Z,19.00
2019-03-20T12:20:39.397Z,19.01
2019-03-20T12:23:06.477Z,18.97
2019-03-20T12:25:33.451Z,18.91
2019-03-20T12:28:00.533Z,18.90
2019-03-20T12:30:28.825Z,18.91
2019-03-20T12:32:55.754Z,18.88
2019-03-20T12:35:22.768Z,18.92
2019-03-20T12:37:49.785Z,18.99
2019-03-20T12:40:17.104Z,19.05
2019-03-20T12:42:44.020Z,19.06
2019-03-20T12:45:11.001Z,19.07
2019-03-20T12:47:38.436Z,19.07
2019-03-20T12:50:05.760Z,19.10
2019-03-20T12:52:32.758Z,19.11
2019-03-20T12:55:00.427Z,19.14
2019-03-20T12:57:27.700Z,19.12
2019-03-20T12:59:55.105Z,19.13
2019-03-20T13:02:22.048Z,19.15
2019-03-20T13:04:48.962Z,19.20
2019-03-20T13:07:16.174Z,19.23
2019-03-20T13:09:43.173Z,19.26
2019-03-20T13:12:10.588Z,19.27
2019-03-20T13:14:42.353Z,19.28
2019-03-20T13:17:09.386Z,19.24
2019-03-20T13:19:36.729Z,19.28
2019-03-20T13:22:03.891Z,19.31
2019-03-20T13:24:30.979Z,19.34
2019-03-20T13:26:57.955Z,19.36
2019-03-20T13:29:27.660Z,19.38
2019-03-20T13:31:56.999Z,19.39
2019-03-20T13:34:23.190Z,19.41
2019-03-20T13:36:50.080Z,19.40
2019-03-20T13:39:17.038Z,19.38
2019-03-20T13:41:47.602Z,19.39
2019-03-20T13:44:14.809Z,19.40
2019-03-20T13:46:41.749Z,19.40
2019-03-20T13:49:08.965Z,19.42
2019-03-20T13:51:35.853Z,19.39
2019-03-20T13:54:03.404Z,19.41
2019-03-20T13:56:30.357Z,19.44
2019-03-20T13:58:57.645Z,19.46
2019-03-20T14:01:24.526Z,19.46
2019-03-20T14:03:51.582Z,19.47
2019-03-20T14:06:18.852Z,19.49
2019-03-20T14:08:46.105Z,19.50
2019-03-20T14:11:13.142Z,19.52
2019-03-20T14:13:41.370Z,19.53
2019-03-20T14:16:08.678Z,19.54
2019-03-20T14:18:35.544Z,19.55
2019-03-20T14:21:02.474Z,19.55
2019-03-20T14:23:29.857Z,19.54
2019-03-20T14:25:59.748Z,19.55
2019-03-20T14:28:26.635Z,19.53
2019-03-20T14:30:53.922Z,19.50
2019-03-20T14:33:20.814Z,19.47
2019-03-20T14:35:47.770Z,19.42
2019-03-20T14:38:14.786Z,19.45
2019-03-20T14:40:42.111Z,19.49
2019-03-20T14:43:09.143Z,19.53
2019-03-20T14:45:36.641Z,19.53
2019-03-20T14:48:03.610Z,19.51
2019-03-20T14:50:30.925Z,19.54
2019-03-20T14:52:57.826Z,19.56
2019-03-20T14:55:25.122Z,19.56
2019-03-20T14:57:52.369Z,19.55
2019-03-20T15:00:19.638Z,19.56
2019-03-20T15:02:46.610Z,19.57
2019-03-20T15:05:13.832Z,19.58
2019-03-20T15:07:40.749Z,19.59
2019-03-20T15:10:08.020Z,19.59
2019-03-20T15:12:34.898Z,19.60
2019-03-20T15:15:02.139Z,19.56
2019-03-20T15:17:29.182Z,19.55
2019-03-20T15:19:56.422Z,19.55
2019-03-20T15:22:23.321Z,19.57
2019-03-20T15:24:50.536Z,19.57
2019-03-20T15:27:17.689Z,19.58
2019-03-20T15:29:44.923Z,19.56
2019-03-20T15:32:12.077Z,19.55
2019-03-20T15:34:39.332Z,19.52
2019-03-20T15:37:06.597Z,19.51
2019-03-20T15:39:33.537Z,19.53
2019-03-20T15:42:00.400Z,19.56
2019-03-20T15:44:27.272Z,19.69
2019-03-20T15:46:54.155Z,19.93
2019-03-20T15:49:21.128Z,20.08
2019-03-20T15:51:48.469Z,20.21
2019-03-20T15:54:15.333Z,20.33
2019-03-20T15:56:42.309Z,20.39
2019-03-20T15:59:09.198Z,20.42
2019-03-20T16:01:36.246Z,20.38
2019-03-20T16:04:03.603Z,20.31
2019-03-20T16:06:30.586Z,20.21
2019-03-20T16:08:57.549Z,20.13
2019-03-20T16:11:24.734Z,20.03
2019-03-20T16:13:52.012Z,19.96
2019-03-20T16:16:19.255Z,19.93
2019-03-20T16:18:46.492Z,19.88
2019-03-20T16:21:13.647Z,19.88
2019-03-20T16:23:40.801Z,19.89
2019-03-20T16:26:07.982Z,19.90
2019-03-20T16:28:35.215Z,19.89
2019-03-20T16:31:02.467Z,19.88
2019-03-20T16:33:33.350Z,19.86
2019-03-20T16:36:00.541Z,19.85
2019-03-20T16:38:27.813Z,19.80
2019-03-20T16:40:54.765Z,19.79
2019-03-20T16:43:22.013Z,19.70
2019-03-20T16:45:48.968Z,19.63
2019-03-20T16:48:15.838Z,19.61
2019-03-20T16:50:43.094Z,19.61
2019-03-20T16:53:10.011Z,19.58
2019-03-20T16:55:36.964Z,19.56
2019-03-20T16:58:04.177Z,19.54
2019-03-20T17:00:31.322Z,19.50
2019-03-20T17:02:58.585Z,19.48
2019-03-20T17:05:25.459Z,19.47
2019-03-20T17:07:52.437Z,19.47
2019-03-20T17:10:20.807Z,19.47
2019-03-20T17:12:47.761Z,19.45
2019-03-20T17:15:14.654Z,19.42
2019-03-20T17:17:41.571Z,19.38
2019-03-20T17:20:08.857Z,19.30
2019-03-20T17:22:41.973Z,19.25
2019-03-20T17:25:04.993Z,19.18
2019-03-20T17:27:32.133Z,19.10
2019-03-20T17:29:59.023Z,19.01
2019-03-20T17:32:25.977Z,18.93
2019-03-20T17:34:52.952Z,18.89
2019-03-20T17:37:20.218Z,18.85
2019-03-20T17:39:49.161Z,18.82
2019-03-20T17:42:15.962Z,18.78
2019-03-20T17:44:42.844Z,18.72
2019-03-20T17:47:10.093Z,18.65
2019-03-20T17:49:37.063Z,18.58
2019-03-20T17:52:04.388Z,18.53
2019-03-20T17:54:31.718Z,18.46
2019-03-20T17:56:59.628Z,18.43
2019-03-20T17:59:26.947Z,18.42
2019-03-20T18:01:54.301Z,18.40
2019-03-20T18:04:21.292Z,18.36
2019-03-20T18:06:48.229Z,18.27
2019-03-20T18:09:15.134Z,18.24
2019-03-20T18:11:47.320Z,18.19
2019-03-20T18:14:10.805Z,18.15
2019-03-20T18:16:37.761Z,18.10
2019-03-20T18:19:05.071Z,18.08
2019-03-20T18:21:32.009Z,18.08
2019-03-20T18:23:58.959Z,18.08
2019-03-20T18:26:25.940Z,18.02
2019-03-20T18:28:53.274Z,18.02
2019-03-20T18:31:20.213Z,18.04
2019-03-20T18:33:47.345Z,17.99
2019-03-20T18:36:14.534Z,18.00
2019-03-20T18:38:41.496Z,18.00
2019-03-20T18:41:08.716Z,18.02
2019-03-20T18:43:35.964Z,18.00
2019-03-20T18:46:02.851Z,17.97
2019-03-20T18:48:29.800Z,17.99
2019-03-20T18:50:56.773Z,17.94
2019-03-20T18:53:23.728Z,17.93
2019-03-20T18:55:50.982Z,17.90
2019-03-20T18:58:18.167Z,17.91
2019-03-20T19:00:45.126Z,17.89
2019-03-20T19:03:12.034Z,17.86
2019-03-20T19:05:39.005Z,17.85
2019-03-20T19:08:05.996Z,17.85
2019-03-20T19:10:34.021Z,17.79
2019-03-20T19:13:01.246Z,17.70
2019-03-20T19:15:29.645Z,17.67
2019-03-20T19:17:56.889Z,17.67
2019-03-20T19:20:24.139Z,17.67
2019-03-20T19:22:51.492Z,17.69
2019-03-20T19:25:19.861Z,17.67
2019-03-20T19:27:47.044Z,17.71
2019-03-20T19:30:16.528Z,17.75
2019-03-20T19:32:43.700Z,17.77
2019-03-20T19:35:13.327Z,17.80
2019-03-20T19:37:40.367Z,17.82
2019-03-20T19:40:07.693Z,17.78
2019-03-20T19:42:34.607Z,17.83
2019-03-20T19:45:01.575Z,17.84
2019-03-20T19:47:28.502Z,17.85
2019-03-20T19:49:55.410Z,17.85
2019-03-20T19:52:22.449Z,17.89
2019-03-20T19:54:49.386Z,17.81
2019-03-20T19:57:16.278Z,17.77
2019-03-20T19:59:43.273Z,17.72
2019-03-20T20:02:10.243Z,17.74
2019-03-20T20:04:37.568Z,17.76
2019-03-20T20:07:04.464Z,17.72
2019-03-20T20:09:32.666Z,17.72
2019-03-20T20:11:59.657Z,17.72
2019-03-20T20:14:26.608Z,17.72
2019-03-20T20:16:54.040Z,17.72
2019-03-20T20:19:21.385Z,17.73
2019-03-20T20:21:48.742Z,17.75
2019-03-20T20:24:16.004Z,17.74
2019-03-20T20:26:43.656Z,17.70
2019-03-20T20:29:10.914Z,17.62
2019-03-20T20:31:38.272Z,17.54
2019-03-20T20:34:05.142Z,17.51
2019-03-20T20:36:32.352Z,17.40
2019-03-20T20:38:59.619Z,17.40
2019-03-20T20:41:26.865Z,17.39
2019-03-20T20:43:54.742Z,17.37
2019-03-20T20:46:21.701Z,17.38
2019-03-20T20:48:48.929Z,17.31
2019-03-20T20:51:16.179Z,17.28
2019-03-20T20:53:43.085Z,17.24
2019-03-20T20:56:10.498Z,17.10
2019-03-20T20:58:37.834Z,17.07
2019-03-20T21:01:04.788Z,17.02
2019-03-20T21:03:31.807Z,16.99
2019-03-20T21:05:58.735Z,16.93
2019-03-20T21:08:26.033Z,16.87
2019-03-20T21:10:52.917Z,16.81
2019-03-20T21:13:19.889Z,16.75
2019-03-20T21:15:46.829Z,16.74
2019-03-20T21:18:14.127Z,16.71
2019-03-20T21:20:40.994Z,16.69
2019-03-20T21:23:07.992Z,16.69
2019-03-20T21:25:35.268Z,16.66
2019-03-20T21:28:02.505Z,16.67
2019-03-20T21:30:29.372Z,16.66
2019-03-20T21:32:56.272Z,16.70
2019-03-20T21:35:24.582Z,16.78
2019-03-20T21:37:51.837Z,16.76
2019-03-20T21:40:19.082Z,16.68
2019-03-20T21:42:45.979Z,16.60
2019-03-20T21:45:12.872Z,16.59
2019-03-20T21:47:40.322Z,16.51
2019-03-20T21:50:07.280Z,16.42
2019-03-20T21:52:37.112Z,16.33
2019-03-20T21:55:03.088Z,16.27
2019-03-20T21:57:30.265Z,16.21
2019-03-20T21:59:57.141Z,16.17
2019-03-20T22:02:24.022Z,16.10
2019-03-20T22:04:50.993Z,16.07
2019-03-20T22:07:19.007Z,16.11
2019-03-20T22:09:45.901Z,16.11
2019-03-20T22:12:12.799Z,16.07
2019-03-20T22:14:40.122Z,16.02
2019-03-20T22:17:07.084Z,16.03
2019-03-20T22:19:34.000Z,16.07
2019-03-20T22:22:01.255Z,16.04
2019-03-20T22:24:28.501Z,16.02
2019-03-20T22:26:55.484Z,15.97
2019-03-20T22:29:22.824Z,15.93
2019-03-20T22:31:49.777Z,15.97
2019-03-20T22:34:17.102Z,16.04
2019-03-20T22:36:43.978Z,16.05
2019-03-20T22:39:10.847Z,15.90
2019-03-20T22:41:37.752Z,15.77
2019-03-20T22:44:04.999Z,15.73
2019-03-20T22:46:32.145Z,15.69
2019-03-20T22:48:59.018Z,15.70
2019-03-20T22:51:26.241Z,15.72
2019-03-20T22:53:53.132Z,15.69
2019-03-20T22:56:20.117Z,15.77
2019-03-20T22:58:47.394Z,15.80
2019-03-20T23:01:14.262Z,15.80
2019-03-20T23:03:41.210Z,15.76
2019-03-20T23:06:08.105Z,15.78
2019-03-20T23:08:34.979Z,15.82
2019-03-20T23:11:01.935Z,15.76
2019-03-20T23:13:28.803Z,15.76
2019-03-20T23:15:55.672Z,15.76
2019-03-20T23:18:22.555Z,15.73
2019-03-20T23:20:50.510Z,15.75
2019-03-20T23:23:17.473Z,15.74
2019-03-20T23:25:44.716Z,15.70
2019-03-20T23:28:11.969Z,15.70
2019-03-20T23:30:39.288Z,15.61
2019-03-20T23:33:06.211Z,15.57
2019-03-20T23:35:33.184Z,15.61
2019-03-20T23:38:00.580Z,15.58
2019-03-20T23:40:27.446Z,15.51
2019-03-20T23:42:54.330Z,15.39
2019-03-20T23:45:21.284Z,15.31
2019-03-20T23:47:48.562Z,15.24
2019-03-20T23:50:15.500Z,15.21
2019-03-20T23:52:42.376Z,15.17
2019-03-20T23:55:09.589Z,15.16
2019-03-20T23:57:36.479Z,15.13
